Etusivu
METAR-TAF:

METAR-TAF

Lentoasemat :

Searcy Municipal Airport

Searcy, Arkansas, Yhdysvallat

Leveyspiiri: 35-12-43N, Pituuspiiri: 091-44-14W, korkeus merenpinnasta: 81 m

Tämänhetkinen sää

Tämä raportti tehtiin 41 minuuttia sitten, kello 00.10 UTC
Tuuli 13 kn koillisesta puuskistuen 23 kn:hen
Lämpötila 2°C
Kosteus 100%
Ilmanpaine 1018 hPa
Näkyvyys: 4.8 km
Pilvistä 700 ft:n korkeudessa
heikkoa lumisadetta, utua

METAR: KSRC 200010Z AUTO 05013G23KT 3SM -SN BR OVC007 02/02 A3005 RMK AO2 LTG DSNT S-NW TSE10 P0004 FZRANO

Aika: 18:51 (00:51 UTC)


TAF: puuttuu

Säähavainnot ja -ennusteet yli 4000 lentoasemalta (METAR- ja TAF-raportit).

Käytössä olevat sääasemat on merkitty karttaan keltaisilla ja punaisilla pisteillä.

Aseta hiiri pisteen päälle nähdäksesi sääaseman nimen.

Klikkaa sitten nähdäksesi säähavainnot ja -ennusteet.

Kartan vaihtaminen: klikkaa mustalla rastilla varustettuja vihreitä pisteitä, niin voit zoomata sisään; viivalla varustettua vihreää pistettä, niin voit zoomata ulos tai vihreitä nuolia, niin pääset viereisille kartoille.


METAR-TAF: